Time;durP1;ratioP1;P1;durP2;ratioP2;P2;SDS_P1;SDS_P2;PMS_P1;PMS_P2;Temp;Humidity;BMP_temperature;BMP_pressure;BME280_temperature;BME280_humidity;BME280_pressure;Samples;Min_cycle;Max_cycle;Signal;HPM_P1;HPM_P2
2021/10/09 09:42:24;;;;;;;0.70;0.70;;;;;;;;;;7198121;19;3325377;-15
2021/10/09 09:44:57;;;;;;;1.38;0.80;;;;;;;;;;7358168;19;153883;-15
2021/10/09 09:47:37;;;;;;;0.70;0.70;;;;;;;;;;7361614;19;162166;-14
2021/10/09 09:50:07;;;;;;;1.42;1.00;;;;;;;;;;7366020;19;162686;-15
2021/10/09 09:52:41;;;;;;;1.10;0.90;;;;;;;;;;7367229;19;153906;-16
2021/10/09 09:55:10;;;;;;;1.17;0.80;;;;;;;;;;7364694;19;153548;-14
2021/10/09 09:57:40;;;;;;;1.48;0.90;;;;;;;;;;7362752;19;161804;-14
2021/10/09 10:00:14;;;;;;;1.67;0.90;;;;;;;;;;7364205;19;162590;-14
2021/10/09 10:02:52;;;;;;;0.93;0.75;;;;;;;;;;7368097;19;153910;-13
2021/10/09 10:05:24;;;;;;;1.02;0.70;;;;;;;;;;7365064;19;153525;-15
2021/10/09 10:07:52;;;;;;;0.90;0.70;;;;;;;;;;7365710;19;161967;-16
2021/10/09 10:10:20;;;;;;;2.90;0.82;;;;;;;;;;7365397;19;162859;-15
2021/10/09 10:12:51;;;;;;;0.80;0.80;;;;;;;;;;7367827;19;154015;-15
2021/10/09 10:15:19;;;;;;;0.70;0.70;;;;;;;;;;7364351;19;153702;-16
2021/10/09 10:17:48;;;;;;;1.52;0.60;;;;;;;;;;7363791;19;162046;-15
2021/10/09 10:20:20;;;;;;;0.90;0.90;;;;;;;;;;7365534;19;162630;-17
2021/10/09 10:22:50;;;;;;;0.90;0.90;;;;;;;;;;7365958;19;154480;-13
2021/10/09 10:25:27;;;;;;;0.70;0.70;;;;;;;;;;7367926;19;152187;-17
2021/10/09 10:28:10;;;;;;;0.50;0.50;;;;;;;;;;7363242;19;161984;-15
2021/10/09 10:31:01;;;;;;;0.68;0.68;;;;;;;;;;7361701;19;162504;-17
2021/10/09 10:33:36;;;;;;;0.70;0.70;;;;;;;;;;7363538;19;154133;-15
2021/10/09 10:36:06;;;;;;;1.85;1.05;;;;;;;;;;7364043;19;153555;-17
2021/10/09 10:38:35;;;;;;;0.70;0.70;;;;;;;;;;7364915;19;161783;-18
2021/10/09 10:41:04;;;;;;;0.75;0.75;;;;;;;;;;7363708;19;162529;-15
2021/10/09 10:43:35;;;;;;;0.70;0.70;;;;;;;;;;7334477;19;154217;-15
2021/10/09 10:46:22;;;;;;;0.88;0.73;;;;;;;;;;7334605;19;153633;-15
2021/10/09 10:49:35;;;;;;;0.80;0.80;;;;;;;;;;7335768;19;161839;-12
2021/10/09 10:54:34;;;;;;;0.52;0.50;;;;;;;;;;7332625;19;154055;-14
2021/10/09 10:57:02;;;;;;;0.60;0.60;;;;;;;;;;7335860;19;153791;-15
2021/10/09 10:59:56;;;;;;;1.17;0.70;;;;;;;;;;7334490;19;161822;-15
2021/10/09 11:02:38;;;;;;;0.60;0.60;;;;;;;;;;7332642;19;162593;-14
2021/10/09 11:05:11;;;;;;;1.48;0.90;;;;;;;;;;7333137;19;154144;-16
2021/10/09 11:07:41;;;;;;;0.55;0.55;;;;;;;;;;7333199;19;153568;-15
2021/10/09 11:10:14;;;;;;;0.70;0.70;;;;;;;;;;7334084;19;161990;-15
2021/10/09 11:12:44;;;;;;;1.70;0.60;;;;;;;;;;7334895;19;163876;-14
2021/10/09 11:15:15;;;;;;;0.60;0.50;;;;;;;;;;7335235;19;154064;-12
2021/10/09 11:17:45;;;;;;;2.28;0.60;;;;;;;;;;7333573;19;153566;-15
2021/10/09 11:20:25;;;;;;;0.55;0.55;;;;;;;;;;7331042;19;161913;-16
2021/10/09 11:22:55;;;;;;;0.57;0.57;;;;;;;;;;7334641;19;163636;-17
2021/10/09 11:25:24;;;;;;;0.57;0.57;;;;;;;;;;7333301;19;154319;-14
2021/10/09 11:27:53;;;;;;;0.63;0.60;;;;;;;;;;7332619;19;153551;-15
2021/10/09 11:30:22;;;;;;;0.73;0.60;;;;;;;;;;7332512;19;161800;-16
2021/10/09 11:32:53;;;;;;;0.60;0.60;;;;;;;;;;7333723;19;162432;-16
2021/10/09 11:35:29;;;;;;;0.40;0.40;;;;;;;;;;7329961;19;154012;-16
2021/10/09 11:37:58;;;;;;;0.70;0.70;;;;;;;;;;7335638;19;153824;-16
2021/10/09 11:40:33;;;;;;;0.50;0.50;;;;;;;;;;7331820;19;162560;-16
2021/10/09 11:43:13;;;;;;;0.60;0.60;;;;;;;;;;7333498;19;162505;-16
2021/10/09 11:57:03;;;;;;;1.00;0.60;;;;;;;;;;7331896;19;153948;-17
2021/10/09 11:59:37;;;;;;;0.60;0.60;;;;;;;;;;7333817;19;153577;-17
2021/10/09 12:02:06;;;;;;;0.55;0.50;;;;;;;;;;7331938;19;161980;-16
2021/10/09 12:04:35;;;;;;;0.60;0.60;;;;;;;;;;7332530;19;162517;-14
2021/10/09 12:09:33;;;;;;;2.88;2.67;;;;;;;;;;7335005;19;153563;-14
2021/10/09 12:12:18;;;;;;;2.10;2.00;;;;;;;;;;7328420;19;161853;-15
2021/10/09 12:14:51;;;;;;;2.65;2.45;;;;;;;;;;7331823;19;162517;-14
2021/10/09 12:17:21;;;;;;;;;;;;;;;;;;7334717;19;153965;-11
2021/10/09 12:19:59;;;;;;;4.18;3.80;;;;;;;;;;7333822;19;153320;-13
2021/10/09 12:22:39;;;;;;;11.57;10.68;;;;;;;;;;7331656;19;161660;-16
2021/10/09 12:25:18;;;;;;;9.55;8.65;;;;;;;;;;7333087;19;162429;-16
2021/10/09 12:27:53;;;;;;;9.45;8.73;;;;;;;;;;7333422;19;153905;-16
2021/10/09 12:30:21;;;;;;;10.75;9.98;;;;;;;;;;7331132;19;153633;-15
2021/10/09 12:32:50;;;;;;;6.50;5.95;;;;;;;;;;7329723;19;161794;-26
2021/10/09 12:35:26;;;;;;;4.10;3.90;;;;;;;;;;7332002;19;162546;-23
2021/10/09 12:38:10;;;;;;;2.22;2.13;;;;;;;;;;7333808;19;153968;-17
2021/10/09 12:40:43;;;;;;;2.13;2.03;;;;;;;;;;7329572;19;153577;-13
2021/10/09 12:43:13;;;;;;;2.10;1.98;;;;;;;;;;7330876;19;162016;-15
2021/10/09 12:45:42;;;;;;;3.65;3.45;;;;;;;;;;7332738;19;162508;-14
2021/10/09 12:48:10;;;;;;;1.58;1.50;;;;;;;;;;7333354;19;154133;-16
2021/10/09 12:50:41;;;;;;;1.52;1.42;;;;;;;;;;7332157;19;153554;-13
2021/10/09 12:53:09;;;;;;;2.20;2.10;;;;;;;;;;7326666;19;162091;-14
2021/10/09 12:55:39;;;;;;;1.80;1.70;;;;;;;;;;7332355;19;162217;-17
2021/10/09 12:58:09;;;;;;;2.05;1.95;;;;;;;;;;7332605;19;153971;-16
2021/10/09 13:00:38;;;;;;;2.10;2.00;;;;;;;;;;7332783;19;153717;-16
2021/10/09 13:03:06;;;;;;;1.60;1.60;;;;;;;;;;7332586;19;161966;-16
2021/10/09 13:05:34;;;;;;;2.05;1.90;;;;;;;;;;7331454;19;162724;-15
2021/10/09 13:08:05;;;;;;;2.05;1.95;;;;;;;;;;7331619;19;153909;-15
2021/10/09 13:10:38;;;;;;;1.80;1.70;;;;;;;;;;7326916;19;153557;-15
2021/10/09 13:13:06;;;;;;;2.10;2.00;;;;;;;;;;7329363;19;162054;-17
2021/10/09 13:15:34;;;;;;;1.73;1.63;;;;;;;;;;7331024;19;162279;-17
2021/10/09 13:18:01;;;;;;;1.77;1.67;;;;;;;;;;7331949;19;154225;-13
2021/10/09 13:20:36;;;;;;;1.73;1.63;;;;;;;;;;7328603;19;153784;-15
2021/10/09 13:23:05;;;;;;;1.80;1.70;;;;;;;;;;7327660;19;162079;-14
2021/10/09 13:25:37;;;;;;;1.73;1.65;;;;;;;;;;7331402;19;162516;-17
2021/10/09 13:28:07;;;;;;;1.55;1.55;;;;;;;;;;7332381;19;154003;-16
2021/10/09 13:30:36;;;;;;;1.38;1.35;;;;;;;;;;7329772;19;153724;-12
2021/10/09 13:33:04;;;;;;;1.55;1.55;;;;;;;;;;7325952;19;161816;-14
2021/10/09 13:35:32;;;;;;;1.60;1.50;;;;;;;;;;7324546;19;162830;-17
2021/10/09 13:38:01;;;;;;;1.52;1.42;;;;;;;;;;7326871;19;154097;-17
2021/10/09 13:40:30;;;;;;;1.70;1.60;;;;;;;;;;7328670;19;153776;-18
2021/10/09 13:42:58;;;;;;;1.45;1.40;;;;;;;;;;7324512;19;161997;-14
2021/10/09 13:45:26;;;;;;;1.30;1.30;;;;;;;;;;7327342;19;162758;-15
2021/10/09 13:47:54;;;;;;;1.20;1.20;;;;;;;;;;7329233;19;153984;-14
2021/10/09 13:50:22;;;;;;;1.50;1.40;;;;;;;;;;7329879;19;153581;-15
2021/10/09 13:52:50;;;;;;;1.27;1.17;;;;;;;;;;7326500;19;161975;-15
2021/10/09 13:55:18;;;;;;;1.55;1.50;;;;;;;;;;7327094;19;162517;-17
2021/10/09 13:57:46;;;;;;;1.50;1.40;;;;;;;;;;7327298;19;153992;-15
2021/10/09 14:00:15;;;;;;;1.30;1.20;;;;;;;;;;7328433;19;153605;-13
2021/10/09 14:02:43;;;;;;;3.58;1.48;;;;;;;;;;7327995;19;161881;-13
2021/10/09 14:05:11;;;;;;;1.30;1.20;;;;;;;;;;7314693;19;162494;-13
2021/10/09 14:07:39;;;;;;;2.30;1.40;;;;;;;;;;7328152;19;153950;-16
2021/10/09 14:10:07;;;;;;;1.20;1.20;;;;;;;;;;7329486;19;153706;-16
2021/10/09 14:12:36;;;;;;;1.20;1.20;;;;;;;;;;7323549;19;162211;-16
2021/10/09 14:15:07;;;;;;;1.20;1.20;;;;;;;;;;7327534;19;162491;-14
2021/10/09 14:17:36;;;;;;;1.25;1.00;;;;;;;;;;7331205;19;153931;-15
2021/10/09 14:20:06;;;;;;;1.17;1.13;;;;;;;;;;7334918;19;153564;-23
2021/10/09 14:22:36;;;;;;;1.08;1.08;;;;;;;;;;7334247;19;161842;-16
2021/10/09 14:25:08;;;;;;;0.90;0.90;;;;;;;;;;7334367;19;162674;-16
2021/10/09 14:27:37;;;;;;;1.00;1.00;;;;;;;;;;7334642;19;154021;-14
2021/10/09 14:30:08;;;;;;;0.90;0.90;;;;;;;;;;7334500;19;153712;-17
2021/10/09 14:32:39;;;;;;;1.00;1.00;;;;;;;;;;7332766;19;161948;-16
2021/10/09 14:35:07;;;;;;;0.98;0.98;;;;;;;;;;7333817;19;162495;-16
2021/10/09 14:37:40;;;;;;;1.00;1.00;;;;;;;;;;7334999;19;154674;-14
2021/10/09 14:40:08;;;;;;;1.05;1.05;;;;;;;;;;7334285;19;153650;-15
2021/10/09 14:42:36;;;;;;;0.90;0.90;;;;;;;;;;7332519;19;161949;-16
2021/10/09 14:45:05;;;;;;;1.13;1.10;;;;;;;;;;7333543;19;162762;-15
2021/10/09 14:47:40;;;;;;;1.00;1.00;;;;;;;;;;7329671;19;154220;-14
2021/10/09 15:20:11;;;;;;;0.77;0.77;;;;;;;;;;7333234;19;154121;-17
2021/10/09 15:22:39;;;;;;;0.80;0.80;;;;;;;;;;7332057;19;153669;-14
2021/10/09 15:25:09;;;;;;;1.00;1.00;;;;;;;;;;7332471;19;161886;-14
2021/10/09 15:27:36;;;;;;;0.60;0.60;;;;;;;;;;7332578;19;162499;-13
2021/10/09 15:30:05;;;;;;;0.88;0.88;;;;;;;;;;7334944;19;153987;-14
2021/10/09 15:32:38;;;;;;;0.90;0.90;;;;;;;;;;7334639;19;153581;-16
2021/10/09 15:35:08;;;;;;;0.80;0.80;;;;;;;;;;7334146;19;162033;-18
2021/10/09 15:37:36;;;;;;;0.73;0.73;;;;;;;;;;7335692;19;162615;-18
2021/10/09 15:40:05;;;;;;;0.60;0.60;;;;;;;;;;7332714;19;153944;-15
2021/10/09 15:42:33;;;;;;;0.50;0.50;;;;;;;;;;7329865;19;153892;-18
2021/10/09 15:45:04;;;;;;;0.80;0.80;;;;;;;;;;7330374;19;161956;-16
2021/10/09 15:47:33;;;;;;;0.70;0.60;;;;;;;;;;7333136;19;162599;-14
2021/10/09 15:50:01;;;;;;;1.13;0.70;;;;;;;;;;7334655;19;154106;-14
2021/10/09 15:52:29;;;;;;;1.33;0.60;;;;;;;;;;7334074;19;153595;-13
2021/10/09 15:54:57;;;;;;;0.55;0.55;;;;;;;;;;7332759;19;161801;-13
2021/10/09 15:57:26;;;;;;;0.55;0.55;;;;;;;;;;7333690;19;162516;-12
2021/10/09 15:59:57;;;;;;;0.70;0.70;;;;;;;;;;7334213;19;154176;-17
2021/10/09 16:02:25;;;;;;;0.50;0.50;;;;;;;;;;7333709;19;153737;-16
2021/10/09 16:04:53;;;;;;;0.60;0.60;;;;;;;;;;7334605;19;161846;-14
2021/10/09 16:07:21;;;;;;;0.50;0.50;;;;;;;;;;7331238;19;162599;-16
2021/10/09 16:09:49;;;;;;;0.50;0.50;;;;;;;;;;7334891;19;154201;-16
2021/10/09 16:12:17;;;;;;;0.68;0.68;;;;;;;;;;7332873;19;153620;-17
2021/10/09 16:14:45;;;;;;;1.08;0.55;;;;;;;;;;7333398;19;162143;-15
2021/10/09 16:17:28;;;;;;;0.52;0.52;;;;;;;;;;7333900;19;162497;-15
2021/10/09 16:19:57;;;;;;;0.82;0.60;;;;;;;;;;7332370;19;154223;-16
2021/10/09 16:22:26;;;;;;;0.50;0.50;;;;;;;;;;7332995;19;153659;-14
2021/10/09 16:24:54;;;;;;;0.52;0.52;;;;;;;;;;7333914;19;162077;-14
2021/10/09 16:27:22;;;;;;;0.47;0.47;;;;;;;;;;7333336;19;162485;-16
2021/10/09 16:29:50;;;;;;;0.50;0.50;;;;;;;;;;7333055;19;153980;-16
2021/10/09 16:32:20;;;;;;;0.50;0.50;;;;;;;;;;7334337;19;153748;-15
2021/10/09 16:34:48;;;;;;;0.45;0.45;;;;;;;;;;7334205;19;161731;-16
2021/10/09 16:37:17;;;;;;;0.50;0.50;;;;;;;;;;7332271;19;162461;-18
2021/10/09 16:39:45;;;;;;;0.50;0.50;;;;;;;;;;7331333;19;154135;-15
2021/10/09 16:42:13;;;;;;;0.40;0.40;;;;;;;;;;7331883;19;153733;-16
2021/10/09 16:44:41;;;;;;;0.40;0.40;;;;;;;;;;7332374;19;161915;-14
2021/10/09 16:47:09;;;;;;;0.52;0.52;;;;;;;;;;7332302;19;162598;-15
2021/10/09 16:49:37;;;;;;;0.45;0.45;;;;;;;;;;7330963;19;153978;-14
2021/10/09 16:52:05;;;;;;;0.65;0.50;;;;;;;;;;7332230;19;153992;-14
2021/10/09 16:54:34;;;;;;;0.50;0.50;;;;;;;;;;7329667;19;162438;-14
2021/10/09 16:57:03;;;;;;;0.40;0.40;;;;;;;;;;7331886;19;162692;-16
2021/10/09 16:59:36;;;;;;;0.45;0.45;;;;;;;;;;7332857;19;153946;-14
2021/10/09 17:02:07;;;;;;;0.60;0.60;;;;;;;;;;7331918;19;153515;-15
2021/10/09 17:04:34;;;;;;;0.40;0.40;;;;;;;;;;7332125;19;162030;-13
2021/10/09 17:07:02;;;;;;;0.47;0.47;;;;;;;;;;7330384;19;162679;-16
2021/10/09 17:09:30;;;;;;;0.65;0.63;;;;;;;;;;7329238;19;153965;-14
2021/10/09 17:11:58;;;;;;;0.55;0.55;;;;;;;;;;7332204;19;153676;-17
2021/10/09 17:14:26;;;;;;;0.40;0.40;;;;;;;;;;7325486;19;161829;-14
2021/10/09 17:16:54;;;;;;;2.83;0.65;;;;;;;;;;7327432;19;162602;-16
2021/10/09 17:19:22;;;;;;;0.50;0.50;;;;;;;;;;7325026;19;154110;-16
2021/10/09 17:21:50;;;;;;;0.45;0.45;;;;;;;;;;7327973;19;153784;-14
2021/10/09 17:24:18;;;;;;;0.73;0.52;;;;;;;;;;7327455;19;161597;-17
2021/10/09 17:26:46;;;;;;;0.50;0.50;;;;;;;;;;7328617;19;162662;-14
2021/10/09 17:29:14;;;;;;;0.40;0.40;;;;;;;;;;7329232;19;154163;-15
2021/10/09 17:31:43;;;;;;;0.50;0.50;;;;;;;;;;7326840;19;153596;-14
2021/10/09 17:34:11;;;;;;;0.60;0.40;;;;;;;;;;7327172;19;161901;-16
2021/10/09 17:36:39;;;;;;;0.40;0.40;;;;;;;;;;7327643;19;162725;-18
2021/10/09 17:39:07;;;;;;;0.38;0.38;;;;;;;;;;7329385;19;154309;-17
2021/10/09 17:41:35;;;;;;;0.30;0.30;;;;;;;;;;7326605;19;153657;-15
2021/10/09 17:44:03;;;;;;;0.50;0.50;;;;;;;;;;7328884;19;161797;-15
2021/10/09 17:46:32;;;;;;;0.70;0.40;;;;;;;;;;7328635;19;162592;-14
2021/10/09 17:49:00;;;;;;;0.30;0.30;;;;;;;;;;7329145;19;154238;-13
2021/10/09 17:51:33;;;;;;;0.32;0.32;;;;;;;;;;7328781;19;153603;-13
2021/10/09 17:54:01;;;;;;;0.85;0.30;;;;;;;;;;7334005;19;161791;-15
2021/10/09 17:56:37;;;;;;;0.40;0.40;;;;;;;;;;7334835;19;162486;-14
2021/10/09 17:59:05;;;;;;;0.40;0.40;;;;;;;;;;7336468;19;153990;-14
2021/10/09 18:01:33;;;;;;;1.20;0.50;;;;;;;;;;7331213;19;153576;-15
2021/10/09 18:04:01;;;;;;;0.40;0.40;;;;;;;;;;7334870;19;161997;-16
2021/10/09 18:06:29;;;;;;;0.40;0.40;;;;;;;;;;7327028;19;162541;-15
2021/10/09 18:08:57;;;;;;;0.30;0.30;;;;;;;;;;7332271;19;154147;-14
2021/10/09 18:11:25;;;;;;;0.40;0.40;;;;;;;;;;7333713;19;153867;-14
2021/10/09 18:13:53;;;;;;;0.40;0.40;;;;;;;;;;7332576;19;161812;-14
2021/10/09 18:16:21;;;;;;;0.40;0.40;;;;;;;;;;7333912;19;162612;-17
2021/10/09 18:18:49;;;;;;;0.40;0.40;;;;;;;;;;7332427;19;154095;-16
2021/10/09 18:21:17;;;;;;;0.57;0.52;;;;;;;;;;7333872;19;153785;-15
2021/10/09 18:23:44;;;;;;;0.43;0.43;;;;;;;;;;7330248;19;161966;-15
2021/10/09 18:26:12;;;;;;;0.40;0.40;;;;;;;;;;7330369;19;162627;-14
2021/10/09 18:28:40;;;;;;;1.95;0.60;;;;;;;;;;7329951;19;154156;-13
2021/10/09 18:31:08;;;;;;;0.30;0.30;;;;;;;;;;7320898;19;153508;-16
2021/10/09 18:33:36;;;;;;;0.40;0.40;;;;;;;;;;7330152;19;162044;-13
2021/10/09 18:36:04;;;;;;;0.57;0.57;;;;;;;;;;7328659;19;162553;-13
2021/10/09 18:38:31;;;;;;;0.40;0.40;;;;;;;;;;7326533;19;154048;-15
2021/10/09 18:40:59;;;;;;;0.50;0.50;;;;;;;;;;7330759;19;153550;-17
2021/10/09 18:43:27;;;;;;;0.47;0.40;;;;;;;;;;7326261;19;161792;-17
2021/10/09 18:45:55;;;;;;;0.63;0.47;;;;;;;;;;7328399;19;162400;-18
2021/10/09 18:48:23;;;;;;;0.95;0.50;;;;;;;;;;7327429;19;153849;-16
2021/10/09 18:50:51;;;;;;;0.63;0.45;;;;;;;;;;7331929;19;153844;-18
2021/10/09 18:53:19;;;;;;;0.50;0.50;;;;;;;;;;7332058;19;161783;-15
2021/10/09 18:55:47;;;;;;;1.02;0.65;;;;;;;;;;7330380;19;162469;-17
2021/10/09 18:58:15;;;;;;;0.47;0.40;;;;;;;;;;7332717;19;154012;-16
2021/10/09 19:00:43;;;;;;;0.75;0.40;;;;;;;;;;7332862;19;153605;-16
2021/10/09 19:03:15;;;;;;;1.55;0.50;;;;;;;;;;7331288;19;161645;-15
2021/10/09 19:05:44;;;;;;;0.43;0.43;;;;;;;;;;7329267;19;162501;-16
2021/10/09 19:08:12;;;;;;;0.70;0.50;;;;;;;;;;7334230;19;153962;-17
2021/10/09 19:10:40;;;;;;;0.70;0.70;;;;;;;;;;7332552;19;153546;-14
2021/10/09 19:13:08;;;;;;;0.50;0.40;;;;;;;;;;7331544;19;161923;-17
2021/10/09 19:15:36;;;;;;;1.20;0.55;;;;;;;;;;7331547;19;162354;-14
2021/10/09 19:18:03;;;;;;;0.70;0.70;;;;;;;;;;7332018;19;154147;-15
2021/10/09 19:20:33;;;;;;;0.60;0.60;;;;;;;;;;7331677;19;153215;-15
2021/10/09 19:23:00;;;;;;;2.03;0.50;;;;;;;;;;7331119;19;161973;-17
2021/10/09 19:25:28;;;;;;;1.30;0.50;;;;;;;;;;7334299;19;162419;-18
2021/10/09 19:27:56;;;;;;;0.57;0.50;;;;;;;;;;7331297;19;154070;-16
2021/10/09 19:30:24;;;;;;;0.73;0.43;;;;;;;;;;7334750;19;153537;-15
2021/10/09 19:32:56;;;;;;;0.40;0.40;;;;;;;;;;7328786;19;162005;-17
2021/10/09 19:35:34;;;;;;;1.00;0.60;;;;;;;;;;7329783;19;162435;-15
2021/10/09 19:38:04;;;;;;;0.47;0.40;;;;;;;;;;7332328;19;154500;-15
2021/10/09 19:40:36;;;;;;;0.50;0.50;;;;;;;;;;7330938;19;153601;-15
2021/10/09 19:43:04;;;;;;;0.52;0.43;;;;;;;;;;7331833;19;161856;-17
2021/10/09 19:45:32;;;;;;;0.57;0.50;;;;;;;;;;7331816;19;162643;-15
2021/10/09 19:48:04;;;;;;;0.95;0.57;;;;;;;;;;7332247;19;154145;-18
2021/10/09 19:50:37;;;;;;;0.47;0.47;;;;;;;;;;7332123;19;153873;-16
2021/10/09 19:53:16;;;;;;;0.40;0.40;;;;;;;;;;7332444;19;161834;-15
2021/10/09 19:55:46;;;;;;;0.55;0.55;;;;;;;;;;7332238;19;162850;-17
2021/10/09 19:58:14;;;;;;;0.45;0.40;;;;;;;;;;7328469;19;154076;-16
2021/10/09 20:00:42;;;;;;;0.40;0.40;;;;;;;;;;7330581;19;153749;-14
2021/10/09 20:03:11;;;;;;;14.23;8.35;;;;;;;;;;7331091;19;162034;-16
2021/10/09 20:05:41;;;;;;;2.33;2.13;;;;;;;;;;7331508;19;162606;-13
2021/10/09 20:08:09;;;;;;;3.55;2.00;;;;;;;;;;7333867;19;153999;-13
2021/10/09 20:10:50;;;;;;;1.65;1.48;;;;;;;;;;7333639;19;154208;-15
2021/10/09 20:13:18;;;;;;;2.35;1.75;;;;;;;;;;7334553;19;161820;-16
2021/10/09 20:15:47;;;;;;;2.35;2.00;;;;;;;;;;7328539;19;162374;-16
2021/10/09 20:18:17;;;;;;;2.10;1.90;;;;;;;;;;7334936;19;154014;-16
2021/10/09 20:20:52;;;;;;;3.13;2.75;;;;;;;;;;7330944;19;154105;-16
2021/10/09 20:23:22;;;;;;;3.35;3.05;;;;;;;;;;7334168;19;161821;-14
2021/10/09 20:25:50;;;;;;;3.75;3.08;;;;;;;;;;7332594;19;162362;-14
2021/10/09 20:28:18;;;;;;;3.20;3.00;;;;;;;;;;7333362;19;153986;-14
2021/10/09 20:30:46;;;;;;;5.20;4.70;;;;;;;;;;7333844;19;153535;-17
2021/10/09 20:33:14;;;;;;;5.35;4.60;;;;;;;;;;7330912;19;161936;-18
2021/10/09 20:35:42;;;;;;;26.58;23.77;;;;;;;;;;7331874;19;162418;-16
2021/10/09 20:38:10;;;;;;;29.45;25.63;;;;;;;;;;7328077;19;154302;-15
2021/10/09 20:40:38;;;;;;;34.38;30.42;;;;;;;;;;7329349;19;153591;-17
2021/10/09 20:43:06;;;;;;;32.25;28.92;;;;;;;;;;7330389;19;161974;-18
2021/10/09 20:45:35;;;;;;;35.97;32.17;;;;;;;;;;7330241;19;162324;-15
2021/10/09 20:48:03;;;;;;;32.58;29.20;;;;;;;;;;7330317;19;154028;-16
2021/10/09 20:50:31;;;;;;;32.70;29.35;;;;;;;;;;7329145;19;153863;-15
2021/10/09 20:52:59;;;;;;;33.35;29.95;;;;;;;;;;7327770;19;161758;-14
2021/10/09 20:55:29;;;;;;;33.38;29.85;;;;;;;;;;7327696;19;162441;-15
2021/10/09 20:57:57;;;;;;;32.95;29.80;;;;;;;;;;7329292;19;154227;-16
2021/10/09 21:00:25;;;;;;;31.73;28.55;;;;;;;;;;7330218;19;153781;-16
2021/10/09 21:02:55;;;;;;;32.50;29.20;;;;;;;;;;7330010;19;161875;-17
2021/10/09 21:05:24;;;;;;;31.05;27.92;;;;;;;;;;7328599;19;162406;-15
2021/10/09 21:07:52;;;;;;;30.92;27.70;;;;;;;;;;7331345;19;153723;-14
2021/10/09 21:10:25;;;;;;;28.98;26.27;;;;;;;;;;7331768;19;153645;-17
2021/10/09 21:13:02;;;;;;;28.92;26.15;;;;;;;;;;7329445;19;162000;-16
2021/10/09 21:23:49;;;;;;;28.55;25.80;;;;;;;;;;7331736;19;161744;-16
2021/10/09 21:26:17;;;;;;;28.52;25.90;;;;;;;;;;7327222;19;162206;-13
2021/10/09 21:28:45;;;;;;;28.23;25.63;;;;;;;;;;7329553;19;153927;-15
2021/10/09 21:31:13;;;;;;;28.75;26.05;;;;;;;;;;7329427;19;153640;-16
2021/10/09 21:33:41;;;;;;;27.67;24.90;;;;;;;;;;7328353;19;161853;-17
2021/10/09 21:36:17;;;;;;;27.50;25.00;;;;;;;;;;7325862;19;162370;-17
2021/10/09 21:38:45;;;;;;;28.67;26.00;;;;;;;;;;7331967;19;154063;-18
2021/10/09 21:41:12;;;;;;;26.38;23.98;;;;;;;;;;7327994;19;153624;-18
2021/10/09 21:43:41;;;;;;;25.55;23.35;;;;;;;;;;7328129;19;163059;-16
2021/10/09 21:46:09;;;;;;;26.20;23.70;;;;;;;;;;7327934;19;162485;-12
2021/10/09 21:48:37;;;;;;;26.15;23.75;;;;;;;;;;7328793;19;154180;-14
2021/10/09 21:51:05;;;;;;;24.77;22.60;;;;;;;;;;7328529;19;153919;-15
2021/10/09 21:53:33;;;;;;;24.85;22.65;;;;;;;;;;7326693;19;162163;-16
2021/10/09 21:56:01;;;;;;;25.92;23.75;;;;;;;;;;7326119;19;162503;-13
2021/10/09 21:58:39;;;;;;;25.50;23.15;;;;;;;;;;7328160;19;154367;-15
2021/10/09 22:01:29;;;;;;;24.05;21.95;;;;;;;;;;7327049;19;153647;-16
2021/10/09 22:17:35;;;;;;;23.33;21.17;;;;;;;;;;7327700;19;162445;-16
2021/10/09 22:20:33;;;;;;;23.17;21.17;;;;;;;;;;7327950;19;154338;-13
2021/10/09 22:34:01;;;;;;;23.35;21.45;;;;;;;;;;7331251;19;153508;-17
2021/10/09 22:36:29;;;;;;;22.30;20.30;;;;;;;;;;7324943;19;161902;-15
2021/10/09 22:38:56;;;;;;;21.73;19.90;;;;;;;;;;7331728;19;162626;-14
2021/10/09 22:41:25;;;;;;;22.73;20.80;;;;;;;;;;7335201;19;153976;-15
2021/10/09 22:43:56;;;;;;;22.50;20.50;;;;;;;;;;7334723;19;153560;-14
2021/10/09 22:46:23;;;;;;;20.65;19.00;;;;;;;;;;7332451;19;161846;-16
2021/10/09 22:48:51;;;;;;;21.20;19.30;;;;;;;;;;7333429;19;162653;-17
2021/10/09 22:51:19;;;;;;;20.75;19.15;;;;;;;;;;7333924;19;153881;-13
2021/10/09 22:53:47;;;;;;;20.73;19.02;;;;;;;;;;7333866;19;153780;-16
2021/10/09 22:56:15;;;;;;;20.85;19.05;;;;;;;;;;7331659;19;161614;-14
2021/10/09 22:58:43;;;;;;;20.33;18.70;;;;;;;;;;7333134;19;162358;-14
2021/10/09 23:01:11;;;;;;;20.50;18.73;;;;;;;;;;7332938;19;154401;-15
2021/10/09 23:03:39;;;;;;;19.85;18.25;;;;;;;;;;7333265;19;153674;-17
2021/10/09 23:06:08;;;;;;;19.08;17.58;;;;;;;;;;7332766;19;161893;-17
2021/10/09 23:08:36;;;;;;;20.05;18.35;;;;;;;;;;7332437;19;162200;-14
2021/10/09 23:11:04;;;;;;;18.50;17.10;;;;;;;;;;7333366;19;154473;-14
2021/10/09 23:13:32;;;;;;;19.42;17.85;;;;;;;;;;7336415;19;153514;-15
2021/10/09 23:16:00;;;;;;;21.02;19.13;;;;;;;;;;7331464;19;161927;-17
2021/10/09 23:18:28;;;;;;;20.80;19.08;;;;;;;;;;7332890;19;162473;-16
2021/10/09 23:20:56;;;;;;;20.00;18.30;;;;;;;;;;7332934;19;154065;-15
2021/10/09 23:23:24;;;;;;;19.00;17.50;;;;;;;;;;7333201;19;153721;-13
2021/10/09 23:25:51;;;;;;;19.17;17.65;;;;;;;;;;7332844;19;161780;-16
2021/10/09 23:28:19;;;;;;;18.98;17.48;;;;;;;;;;7334249;19;162420;-13
2021/10/09 23:30:48;;;;;;;18.65;17.10;;;;;;;;;;7332011;19;154111;-13
2021/10/09 23:33:16;;;;;;;20.38;18.77;;;;;;;;;;7332063;19;153658;-18
2021/10/09 23:35:44;;;;;;;18.58;17.08;;;;;;;;;;7331348;19;161807;-16
2021/10/09 23:38:12;;;;;;;18.55;17.02;;;;;;;;;;7332354;19;162493;-17
2021/10/09 23:40:40;;;;;;;18.42;17.00;;;;;;;;;;7331299;19;154554;-15
2021/10/09 23:43:08;;;;;;;18.35;16.77;;;;;;;;;;7329967;19;153538;-11
2021/10/09 23:45:37;;;;;;;17.05;15.65;;;;;;;;;;7332151;19;161956;-14
2021/10/09 23:48:05;;;;;;;18.92;17.42;;;;;;;;;;7331961;19;162275;-16
2021/10/09 23:50:34;;;;;;;18.63;17.23;;;;;;;;;;7329826;19;154137;-17
2021/10/09 23:53:02;;;;;;;12.18;11.18;;;;;;;;;;7332215;19;153601;-18
2021/10/09 23:55:30;;;;;;;12.63;11.63;;;;;;;;;;7331510;19;161807;-14
